Time;durP1;ratioP1;P1;durP2;ratioP2;P2;SDS_P1;SDS_P2;PMS_P1;PMS_P2;Temp;Humidity;BMP_temperature;BMP_pressure;BME280_temperature;BME280_humidity;BME280_pressure;Samples;Min_cycle;Max_cycle;Signal;HPM_P1;HPM_P2
2020/12/18 00:00:56;;;;;;;23.48;18.98;;;9.70;1.00;;;;;;5019504;28;20021;-95
2020/12/18 00:03:22;;;;;;;22.23;17.67;;;9.80;1.00;;;;;;5019548;28;20026;-95
2020/12/18 00:05:47;;;;;;;20.75;16.95;;;9.80;1.00;;;;;;5019481;28;20064;-95
2020/12/18 00:08:14;;;;;;;24.20;17.70;;;9.80;1.00;;;;;;5019441;28;20071;-95
2020/12/18 00:10:40;;;;;;;19.45;16.48;;;9.80;1.00;;;;;;5019156;28;20029;-95
2020/12/18 00:13:06;;;;;;;21.38;17.55;;;9.80;1.00;;;;;;5019211;28;20056;-94
2020/12/18 00:15:32;;;;;;;23.00;17.20;;;9.80;1.00;;;;;;5019646;28;20044;-95
2020/12/18 00:17:57;;;;;;;22.92;17.70;;;9.80;1.00;;;;;;5019404;28;20075;-94
2020/12/18 00:20:23;;;;;;;21.05;17.27;;;9.80;1.00;;;;;;5026385;28;20078;-94
2020/12/18 00:22:49;;;;;;;22.42;16.63;;;9.70;1.00;;;;;;5038843;28;20032;-94
2020/12/18 00:25:15;;;;;;;20.65;17.13;;;9.70;1.00;;;;;;5038662;28;20021;-94
2020/12/18 00:27:42;;;;;;;22.92;17.00;;;9.70;1.00;;;;;;5038507;28;20083;-94
2020/12/18 00:30:09;;;;;;;21.10;17.15;;;9.60;1.00;;;;;;5039046;28;20032;-93
2020/12/18 00:32:40;;;;;;;21.80;17.48;;;9.70;1.00;;;;;;5038374;28;20387;-94
2020/12/18 00:35:08;;;;;;;21.85;16.92;;;9.60;1.00;;;;;;5038459;28;20036;-94
2020/12/18 00:37:34;;;;;;;22.65;17.38;;;9.70;1.00;;;;;;5038585;28;20025;-94
2020/12/18 00:40:00;;;;;;;21.25;16.55;;;9.70;1.00;;;;;;5038257;28;20032;-94
2020/12/18 00:42:29;;;;;;;21.42;16.92;;;9.70;1.00;;;;;;5038782;28;20031;-95
2020/12/18 00:44:55;;;;;;;22.25;16.73;;;9.80;1.00;;;;;;5038613;28;20021;-94
2020/12/18 00:47:21;;;;;;;21.40;16.67;;;9.70;1.00;;;;;;5038509;28;20033;-94
2020/12/18 00:49:47;;;;;;;21.65;16.42;;;9.70;1.00;;;;;;5038234;28;20021;-94
2020/12/18 00:55:34;;;;;;;20.08;16.02;;;9.70;1.00;;;;;;5056242;28;20510;-95
2020/12/18 00:58:00;;;;;;;19.58;15.38;;;9.60;1.00;;;;;;5038026;28;20024;-94
2020/12/18 01:00:26;;;;;;;21.77;15.45;;;9.60;1.00;;;;;;5038233;28;20017;-94
2020/12/18 01:02:51;;;;;;;20.52;15.57;;;9.60;1.00;;;;;;5038371;28;20373;-94
2020/12/18 01:05:17;;;;;;;20.33;15.80;;;9.60;1.00;;;;;;5038190;28;20480;-94
2020/12/18 01:07:42;;;;;;;20.90;15.65;;;9.60;1.00;;;;;;5037938;28;20031;-95
2020/12/18 01:10:08;;;;;;;22.15;16.02;;;9.50;1.00;;;;;;5038186;28;20029;-94
2020/12/18 01:12:34;;;;;;;19.65;15.63;;;9.50;1.00;;;;;;5037557;28;20045;-94
2020/12/18 01:14:59;;;;;;;21.95;14.32;;;9.60;1.00;;;;;;5054748;28;20079;-94
2020/12/18 01:17:25;;;;;;;21.42;13.90;;;9.60;1.00;;;;;;5054126;28;20476;-94
2020/12/18 01:19:51;;;;;;;18.75;13.02;;;9.60;1.00;;;;;;5054269;28;20033;-95
2020/12/18 01:22:16;;;;;;;18.38;13.82;;;9.60;1.00;;;;;;5054254;28;20078;-95
2020/12/18 01:24:42;;;;;;;18.77;13.23;;;9.60;1.00;;;;;;5054248;28;20477;-95
2020/12/18 01:27:07;;;;;;;16.63;13.20;;;9.60;1.00;;;;;;5054425;28;20464;-94
2020/12/18 01:29:33;;;;;;;18.27;14.60;;;9.60;1.00;;;;;;5054591;28;20021;-94
2020/12/18 01:31:59;;;;;;;19.92;13.93;;;9.60;1.00;;;;;;5053959;28;20036;-94
2020/12/18 01:34:24;;;;;;;18.60;14.75;;;9.50;1.00;;;;;;5054313;28;20105;-94
2020/12/18 01:36:51;;;;;;;20.08;14.20;;;9.50;1.00;;;;;;5054021;28;20076;-94
2020/12/18 01:39:17;;;;;;;19.17;13.82;;;9.50;1.00;;;;;;5053072;28;20028;-94
2020/12/18 01:41:42;;;;;;;18.08;13.82;;;9.40;1.00;;;;;;5054158;28;20036;-94
2020/12/18 01:44:08;;;;;;;17.38;13.43;;;9.40;1.00;;;;;;5053871;28;20029;-94
2020/12/18 01:46:36;;;;;;;19.77;13.45;;;9.40;1.00;;;;;;5053861;28;20025;-94
2020/12/18 01:49:01;;;;;;;19.45;12.88;;;9.40;1.00;;;;;;5037451;28;20455;-94
2020/12/18 01:51:27;;;;;;;14.15;11.20;;;9.50;1.00;;;;;;5053751;28;20043;-94
2020/12/18 01:53:54;;;;;;;16.48;12.52;;;9.50;1.00;;;;;;5053708;28;20028;-95
2020/12/18 01:56:23;;;;;;;16.88;12.00;;;9.50;1.00;;;;;;5037002;28;20033;-95
2020/12/18 01:58:52;;;;;;;16.15;12.13;;;9.60;1.00;;;;;;5037374;28;20112;-94
2020/12/18 02:01:18;;;;;;;15.10;11.48;;;9.60;1.00;;;;;;5037195;28;20021;-95
2020/12/18 02:03:44;;;;;;;14.45;11.45;;;9.70;1.00;;;;;;5053406;28;20116;-94
2020/12/18 02:06:16;;;;;;;17.58;13.10;;;9.80;1.00;;;;;;5053837;28;20028;-94
2020/12/18 02:08:44;;;;;;;17.90;12.77;;;9.80;1.00;;;;;;5036846;28;20052;-94
2020/12/18 02:11:11;;;;;;;17.58;13.52;;;9.90;1.00;;;;;;5036761;28;20076;-95
2020/12/18 02:13:37;;;;;;;17.88;13.45;;;9.90;1.00;;;;;;5037081;28;20025;-94
2020/12/18 02:16:03;;;;;;;19.38;14.35;;;9.90;1.00;;;;;;5053306;28;20035;-95
2020/12/18 02:18:29;;;;;;;22.17;17.08;;;9.70;1.00;;;;;;5053125;28;20029;-94
2020/12/18 02:20:55;;;;;;;20.88;16.65;;;9.60;1.00;;;;;;5036823;28;20167;-94
2020/12/18 02:23:20;;;;;;;18.05;14.93;;;9.60;1.00;;;;;;5053046;28;20040;-95
2020/12/18 02:26:05;;;;;;;19.20;15.02;;;9.60;1.00;;;;;;5053282;28;20044;-95
2020/12/18 02:28:30;;;;;;;22.08;15.82;;;9.60;1.00;;;;;;5036734;28;20029;-95
2020/12/18 02:30:56;;;;;;;19.70;15.18;;;9.50;1.00;;;;;;5053170;28;20040;-94
2020/12/18 02:33:22;;;;;;;17.98;14.32;;;9.50;1.00;;;;;;5052826;28;20028;-95
2020/12/18 02:35:47;;;;;;;20.27;15.27;;;9.60;1.00;;;;;;5052799;28;20029;-95
2020/12/18 02:38:13;;;;;;;20.73;15.02;;;9.70;1.00;;;;;;5052913;28;20120;-95
2020/12/18 02:40:38;;;;;;;21.05;14.82;;;9.80;1.00;;;;;;5052826;28;20025;-95
2020/12/18 02:43:04;;;;;;;18.73;14.45;;;9.80;1.00;;;;;;5053251;28;20032;-95
2020/12/18 02:45:30;;;;;;;17.92;13.60;;;9.70;1.00;;;;;;5052863;28;20033;-95
2020/12/18 02:47:55;;;;;;;17.98;14.73;;;9.80;1.00;;;;;;5053053;28;20029;-94
2020/12/18 02:50:22;;;;;;;21.25;15.85;;;9.80;1.00;;;;;;5053188;28;20025;-94
2020/12/18 02:52:47;;;;;;;22.13;16.58;;;9.80;1.00;;;;;;5052915;28;20081;-95
2020/12/18 02:55:13;;;;;;;18.17;14.30;;;9.90;1.00;;;;;;5052507;28;20033;-95
2020/12/18 02:57:39;;;;;;;18.20;15.10;;;9.90;1.00;;;;;;5053008;28;20025;-95
2020/12/18 03:00:06;;;;;;;18.10;15.00;;;9.90;1.00;;;;;;5052939;28;20472;-95
2020/12/18 03:02:31;;;;;;;17.63;13.88;;;10.00;1.00;;;;;;5036176;28;20025;-95
2020/12/18 03:04:57;;;;;;;17.58;14.15;;;9.90;1.00;;;;;;5052954;28;20507;-95
2020/12/18 03:07:22;;;;;;;19.58;14.82;;;9.90;1.00;;;;;;5052530;28;20029;-95
2020/12/18 03:09:48;;;;;;;19.33;14.77;;;9.80;1.00;;;;;;5052504;28;20034;-94
2020/12/18 03:12:14;;;;;;;19.23;14.80;;;9.90;1.00;;;;;;5052430;28;20048;-95
2020/12/18 03:14:39;;;;;;;20.33;14.65;;;9.80;1.00;;;;;;5052579;28;20035;-94
2020/12/18 03:17:05;;;;;;;18.77;13.95;;;9.90;1.00;;;;;;5053335;28;20024;-95
2020/12/18 03:19:31;;;;;;;19.30;15.90;;;9.80;1.00;;;;;;5052762;28;20024;-95
2020/12/18 03:21:56;;;;;;;18.20;14.23;;;9.90;1.00;;;;;;5052672;28;20025;-95
2020/12/18 03:24:22;;;;;;;22.13;15.63;;;9.90;1.00;;;;;;5052411;28;20021;-95
2020/12/18 03:26:48;;;;;;;23.65;17.30;;;9.90;1.00;;;;;;5052417;28;20021;-95
2020/12/18 03:29:13;;;;;;;20.42;14.85;;;9.80;1.00;;;;;;5052662;28;20032;-94
2020/12/18 03:31:39;;;;;;;22.08;16.85;;;9.90;1.00;;;;;;5052593;28;20029;-95
2020/12/18 03:34:05;;;;;;;19.50;15.45;;;9.80;1.00;;;;;;5052291;28;20025;-95
2020/12/18 03:36:36;;;;;;;20.73;16.25;;;9.90;1.00;;;;;;5035719;28;20119;-95
2020/12/18 03:39:03;;;;;;;23.63;17.33;;;9.90;1.00;;;;;;5052245;28;20029;-94
2020/12/18 03:41:28;;;;;;;22.67;16.55;;;9.90;1.00;;;;;;5035796;28;20029;-95
2020/12/18 03:43:54;;;;;;;20.33;16.05;;;9.90;1.00;;;;;;5052301;28;20392;-95
2020/12/18 03:46:20;;;;;;;21.50;16.25;;;9.80;1.00;;;;;;5052420;28;20543;-94
2020/12/18 03:48:45;;;;;;;20.50;15.80;;;9.90;1.00;;;;;;5052286;28;20029;-95
2020/12/18 03:51:11;;;;;;;17.40;14.05;;;9.80;1.00;;;;;;5052192;28;20051;-96
2020/12/18 03:53:36;;;;;;;17.92;14.23;;;9.80;1.00;;;;;;5052071;28;20029;-95
2020/12/18 03:56:02;;;;;;;20.63;14.75;;;9.60;1.00;;;;;;5052153;28;20111;-95
2020/12/18 03:58:28;;;;;;;19.85;15.48;;;9.50;1.00;;;;;;5052326;28;20027;-96
2020/12/18 04:00:53;;;;;;;20.67;15.88;;;9.40;1.00;;;;;;5052430;28;20116;-95
2020/12/18 04:03:19;;;;;;;20.42;16.45;;;9.30;1.00;;;;;;5055913;28;20397;-95
2020/12/18 04:05:44;;;;;;;22.13;16.63;;;9.30;1.00;;;;;;5055586;28;20048;-95
2020/12/18 04:08:10;;;;;;;19.95;15.40;;;9.30;1.00;;;;;;5055781;28;20140;-95
2020/12/18 04:10:36;;;;;;;19.20;15.68;;;9.20;1.00;;;;;;5055239;28;20028;-95
2020/12/18 04:13:01;;;;;;;20.20;15.45;;;9.10;1.00;;;;;;5039153;28;20078;-95
2020/12/18 04:15:27;;;;;;;21.63;15.93;;;9.00;1.00;;;;;;5038921;28;20040;-95
2020/12/18 04:17:52;;;;;;;20.27;15.52;;;9.10;1.00;;;;;;5038795;28;20473;-95
2020/12/18 04:20:18;;;;;;;19.70;15.63;;;9.00;1.00;;;;;;5038836;28;20063;-95
2020/12/18 04:26:05;;;;;;;21.75;15.32;;;9.10;1.00;;;;;;5056692;28;20028;-95
2020/12/18 04:28:31;;;;;;;22.05;16.58;;;9.10;1.00;;;;;;5039111;28;20025;-95
2020/12/18 04:30:58;;;;;;;21.23;15.75;;;9.20;1.00;;;;;;5038771;28;20028;-95
2020/12/18 04:33:24;;;;;;;21.83;16.02;;;9.20;1.00;;;;;;5038824;28;20472;-95
2020/12/18 04:35:49;;;;;;;21.70;15.65;;;9.30;1.00;;;;;;5038491;28;20112;-95
2020/12/18 04:38:15;;;;;;;25.00;16.05;;;9.30;1.00;;;;;;5038295;28;20374;-95
2020/12/18 04:40:41;;;;;;;22.25;16.08;;;9.30;1.00;;;;;;5038528;28;20032;-95
2020/12/18 04:43:07;;;;;;;21.00;16.10;;;9.40;1.00;;;;;;5038758;28;20021;-95
2020/12/18 04:45:33;;;;;;;24.05;16.08;;;9.40;1.00;;;;;;5038605;28;20036;-95
2020/12/18 04:48:01;;;;;;;22.15;16.42;;;9.40;1.00;;;;;;5038223;28;20025;-95
2020/12/18 04:50:28;;;;;;;21.85;16.50;;;9.50;1.00;;;;;;5038237;28;20028;-94
2020/12/18 04:52:57;;;;;;;18.23;15.27;;;9.60;1.00;;;;;;5038429;28;20025;-95
2020/12/18 04:55:29;;;;;;;20.48;15.45;;;9.60;1.00;;;;;;5038243;28;20025;-95
2020/12/18 04:57:57;;;;;;;20.55;15.95;;;9.60;1.00;;;;;;5038040;28;20110;-95
2020/12/18 05:00:22;;;;;;;21.00;15.00;;;9.60;1.00;;;;;;5038323;28;20059;-95
2020/12/18 05:02:48;;;;;;;20.00;15.45;;;9.60;1.00;;;;;;5037953;28;20496;-95
2020/12/18 05:05:14;;;;;;;21.42;15.15;;;9.70;1.00;;;;;;5038133;28;20033;-96
2020/12/18 05:07:39;;;;;;;21.02;15.52;;;9.70;1.00;;;;;;5037894;28;20117;-95
2020/12/18 05:10:09;;;;;;;19.08;14.82;;;9.60;1.00;;;;;;5037853;28;20048;-95
2020/12/18 05:12:35;;;;;;;18.15;14.75;;;9.60;1.00;;;;;;5037260;28;20048;-95
2020/12/18 05:15:05;;;;;;;18.88;14.50;;;9.70;1.00;;;;;;5037609;28;20033;-95
2020/12/18 05:17:31;;;;;;;18.52;14.00;;;9.60;1.00;;;;;;5038056;28;20057;-95
2020/12/18 05:19:58;;;;;;;20.50;14.75;;;9.70;1.00;;;;;;5037675;28;20052;-95
2020/12/18 05:22:25;;;;;;;21.63;16.08;;;9.60;1.00;;;;;;5054359;28;20028;-95
2020/12/18 05:24:53;;;;;;;20.08;15.52;;;9.70;1.00;;;;;;5037919;28;20025;-95
2020/12/18 05:27:19;;;;;;;20.25;14.57;;;9.70;1.00;;;;;;5037763;28;20021;-95
2020/12/18 05:29:45;;;;;;;19.25;15.18;;;9.70;1.00;;;;;;5037880;28;20116;-96
2020/12/18 05:32:13;;;;;;;18.40;14.07;;;9.70;1.00;;;;;;5037668;28;20019;-95
2020/12/18 05:34:40;;;;;;;22.20;15.52;;;9.70;1.00;;;;;;5037319;28;20025;-95
2020/12/18 05:37:06;;;;;;;19.25;14.98;;;9.70;1.00;;;;;;5037468;28;20192;-95
2020/12/18 05:39:34;;;;;;;20.58;16.42;;;9.80;1.00;;;;;;5037683;28;20459;-94
2020/12/18 05:42:01;;;;;;;20.55;16.75;;;9.80;1.00;;;;;;5037459;28;20040;-95
2020/12/18 05:44:29;;;;;;;19.75;16.77;;;9.80;1.00;;;;;;5037589;28;20111;-95
2020/12/18 05:47:09;;;;;;;21.08;15.90;;;9.80;1.00;;;;;;5037259;28;20029;-95
2020/12/18 05:49:37;;;;;;;19.88;15.80;;;9.70;1.00;;;;;;5037169;28;20036;-95
2020/12/18 05:52:04;;;;;;;19.52;15.35;;;9.80;1.00;;;;;;5037754;28;20029;-95
2020/12/18 05:54:37;;;;;;;21.48;16.48;;;9.80;1.00;;;;;;5037278;28;20574;-95
2020/12/18 05:57:14;;;;;;;23.70;16.63;;;9.80;1.00;;;;;;5037286;28;20035;-95
2020/12/18 05:59:45;;;;;;;20.83;16.42;;;9.70;1.00;;;;;;5037149;28;20036;-95
2020/12/18 06:02:13;;;;;;;21.95;15.90;;;9.70;1.00;;;;;;5036930;28;20091;-94
2020/12/18 06:04:39;;;;;;;21.10;16.48;;;9.80;1.00;;;;;;5037227;28;20031;-96
2020/12/18 06:07:06;;;;;;;21.17;16.30;;;9.70;1.00;;;;;;5036917;28;20018;-95
2020/12/18 06:09:33;;;;;;;21.92;16.05;;;9.70;1.00;;;;;;5037055;28;20029;-94
2020/12/18 06:12:05;;;;;;;24.15;16.38;;;9.60;1.00;;;;;;5036404;28;20040;-95
2020/12/18 06:14:32;;;;;;;21.50;16.65;;;9.50;1.00;;;;;;5036826;28;20033;-95
2020/12/18 06:17:08;;;;;;;20.65;16.60;;;9.50;1.00;;;;;;5053611;28;20035;-95
2020/12/18 06:19:43;;;;;;;23.92;17.02;;;9.60;1.00;;;;;;5032258;28;20036;-95
2020/12/18 06:22:13;;;;;;;22.23;17.73;;;9.60;1.00;;;;;;5037035;28;20025;-96
2020/12/18 06:24:44;;;;;;;21.17;17.23;;;9.60;1.00;;;;;;5036077;28;20110;-95
2020/12/18 06:27:15;;;;;;;23.15;17.05;;;9.60;1.00;;;;;;5036711;28;20025;-95
2020/12/18 06:29:42;;;;;;;23.40;17.35;;;9.60;1.00;;;;;;5037030;28;20083;-96
2020/12/18 06:35:37;;;;;;;24.67;18.13;;;9.70;1.00;;;;;;5054315;28;20091;-95
2020/12/18 06:38:18;;;;;;;23.65;17.23;;;9.70;1.00;;;;;;5036184;28;20044;-95
2020/12/18 06:40:44;;;;;;;26.17;18.30;;;9.70;1.00;;;;;;5053156;28;20531;-95
2020/12/18 06:43:10;;;;;;;24.27;18.25;;;9.70;1.00;;;;;;5036518;28;20021;-95
2020/12/18 06:45:36;;;;;;;24.08;17.98;;;9.70;1.00;;;;;;5036239;28;20021;-95
2020/12/18 06:48:28;;;;;;;25.02;17.77;;;9.60;1.00;;;;;;5052985;28;20025;-96
2020/12/18 06:50:54;;;;;;;24.20;18.48;;;9.60;1.00;;;;;;5023152;28;20033;-95
2020/12/18 06:53:19;;;;;;;23.80;18.45;;;9.50;1.00;;;;;;5036348;28;20392;-95
2020/12/18 06:55:45;;;;;;;25.45;18.38;;;9.60;1.00;;;;;;5052622;28;20388;-95
2020/12/18 06:58:13;;;;;;;25.30;18.30;;;9.50;1.00;;;;;;5052549;28;20082;-94
2020/12/18 07:00:41;;;;;;;24.88;17.98;;;9.50;1.00;;;;;;5036287;28;20026;-95
2020/12/18 07:03:07;;;;;;;23.88;18.33;;;9.60;1.00;;;;;;5052782;28;20114;-93
2020/12/18 07:05:36;;;;;;;25.77;18.13;;;9.60;1.00;;;;;;5040461;28;20053;-93
2020/12/18 07:08:11;;;;;;;22.73;18.45;;;9.60;1.00;;;;;;5014928;28;20057;-94
2020/12/18 07:11:09;;;;;;;24.70;17.77;;;9.60;1.00;;;;;;5012502;28;20113;-92
2020/12/18 07:13:35;;;;;;;22.30;17.05;;;9.70;1.00;;;;;;4996784;28;20520;-93
2020/12/18 07:20:15;;;;;;;19.75;15.45;;;9.60;1.00;;;;;;5013987;28;20120;-95
2020/12/18 07:26:05;;;;;;;21.50;15.02;;;9.70;1.00;;;;;;5015057;28;20406;-96
2020/12/18 07:28:32;;;;;;;20.88;15.10;;;9.70;1.00;;;;;;4996491;28;20088;-96
2020/12/18 07:30:58;;;;;;;19.95;15.23;;;9.70;1.00;;;;;;4997163;28;20034;-96
2020/12/18 07:33:25;;;;;;;19.10;13.93;;;9.70;1.00;;;;;;4996829;28;20034;-96
2020/12/18 07:35:56;;;;;;;18.90;14.45;;;9.80;1.00;;;;;;4997743;28;20030;-95
2020/12/18 07:41:43;;;;;;;18.83;14.13;;;9.80;1.00;;;;;;5017939;28;20057;-96
2020/12/18 07:44:09;;;;;;;17.30;13.63;;;9.90;1.00;;;;;;5000456;28;20085;-96
2020/12/18 07:46:36;;;;;;;18.85;14.07;;;9.80;1.00;;;;;;5000806;28;20030;-96
2020/12/18 07:49:11;;;;;;;22.17;17.60;;;9.80;1.00;;;;;;5000256;28;20037;-96
2020/12/18 07:51:38;;;;;;;23.50;18.20;;;9.90;1.00;;;;;;5000144;28;20026;-96
2020/12/18 07:54:04;;;;;;;22.65;16.58;;;10.00;1.00;;;;;;5000103;28;20057;-96
2020/12/18 07:56:29;;;;;;;22.38;15.85;;;10.10;1.00;;;;;;5000364;28;20025;-94
2020/12/18 07:58:59;;;;;;;19.77;15.27;;;10.10;1.00;;;;;;4999630;28;20037;-94
2020/12/18 08:04:55;;;;;;;20.77;15.02;;;10.30;1.00;;;;;;5017510;28;20068;-96
2020/12/18 08:10:43;;;;;;;22.10;15.18;;;10.20;1.00;;;;;;5017938;28;20029;-96
2020/12/18 08:13:08;;;;;;;21.15;14.75;;;10.20;1.00;;;;;;5013136;28;20041;-93
2020/12/18 08:15:35;;;;;;;20.38;14.95;;;10.30;1.00;;;;;;5002174;28;20401;-96
2020/12/18 08:18:01;;;;;;;21.50;14.23;;;10.10;1.00;;;;;;5001701;28;20022;-94
2020/12/18 08:20:26;;;;;;;19.73;15.73;;;10.10;1.00;;;;;;5000059;28;20026;-96
2020/12/18 08:22:53;;;;;;;23.08;16.80;;;10.10;1.00;;;;;;4999492;28;20022;-94
2020/12/18 08:25:19;;;;;;;21.65;16.38;;;10.10;1.00;;;;;;5042829;28;20481;-96
2020/12/18 08:27:50;;;;;;;22.77;16.23;;;10.10;1.00;;;;;;5018828;28;20566;-95
2020/12/18 08:30:18;;;;;;;21.95;15.95;;;10.10;1.00;;;;;;5019267;28;20034;-95
2020/12/18 08:32:52;;;;;;;22.58;16.13;;;10.20;1.00;;;;;;5019003;28;20077;-95
2020/12/18 08:35:19;;;;;;;22.13;16.15;;;10.20;1.00;;;;;;5004516;28;20060;-95
2020/12/18 08:37:46;;;;;;;22.05;16.73;;;10.20;1.00;;;;;;5000639;28;20026;-93
2020/12/18 08:40:19;;;;;;;21.85;17.27;;;10.30;1.00;;;;;;4999094;28;20117;-93
2020/12/18 08:42:57;;;;;;;23.52;16.13;;;10.40;1.00;;;;;;4999103;28;20047;-92
2020/12/18 08:45:23;;;;;;;25.27;16.60;;;10.40;1.00;;;;;;4999396;28;20112;-93
2020/12/18 08:47:51;;;;;;;20.60;16.40;;;10.40;1.00;;;;;;5003713;28;20565;-96
2020/12/18 08:50:20;;;;;;;24.13;18.23;;;10.40;1.00;;;;;;5001300;28;20486;-92
2020/12/18 08:52:54;;;;;;;22.55;17.27;;;10.60;1.00;;;;;;5042416;28;20026;-91
2020/12/18 08:55:21;;;;;;;22.38;16.60;;;10.60;1.00;;;;;;5018080;28;20047;-92
2020/12/18 08:57:47;;;;;;;25.52;16.70;;;10.50;1.00;;;;;;5017751;28;20025;-92
2020/12/18 09:00:14;;;;;;;22.05;15.98;;;10.50;1.00;;;;;;5018442;28;20032;-93
2020/12/18 09:02:48;;;;;;;21.35;16.80;;;10.50;1.00;;;;;;5004097;28;20018;-93
2020/12/18 09:05:44;;;;;;;23.35;16.80;;;10.60;1.00;;;;;;4998616;28;20077;-93
2020/12/18 09:08:16;;;;;;;21.45;16.70;;;10.80;1.00;;;;;;4963397;28;20059;-93
2020/12/18 09:10:42;;;;;;;21.30;15.80;;;10.90;1.00;;;;;;4940590;28;20035;-92
2020/12/18 09:13:16;;;;;;;20.05;15.77;;;11.00;1.00;;;;;;4958756;28;20042;-93
2020/12/18 09:15:51;;;;;;;22.63;17.30;;;11.10;1.00;;;;;;4959559;28;20027;-95
2020/12/18 09:18:24;;;;;;;24.27;15.98;;;11.60;1.00;;;;;;4958892;28;20049;-95
2020/12/18 09:20:52;;;;;;;20.55;15.82;;;12.40;1.00;;;;;;4958821;28;20034;-93
2020/12/18 09:23:28;;;;;;;18.77;14.80;;;13.80;1.00;;;;;;4977112;28;20114;-92
2020/12/18 09:25:54;;;;;;;20.35;15.00;;;13.80;99.90;;;;;;4994202;28;20042;-93
2020/12/18 09:28:21;;;;;;;19.40;12.95;;;13.80;99.90;;;;;;4994443;28;20038;-94
2020/12/18 09:30:54;;;;;;;17.63;14.68;;;18.10;99.90;;;;;;4991516;28;20046;-95
2020/12/18 09:33:26;;;;;;;16.05;13.55;;;15.80;99.90;;;;;;4994102;28;20526;-94
2020/12/18 09:36:02;;;;;;;17.50;13.27;;;14.30;99.90;;;;;;4994386;28;20379;-91
2020/12/18 09:38:53;;;;;;;16.65;13.98;;;14.20;99.90;;;;;;4993722;28;20093;-92
2020/12/18 09:41:23;;;;;;;18.05;13.30;;;14.50;99.90;;;;;;4994108;28;20394;-93
2020/12/18 09:43:49;;;;;;;16.15;13.18;;;14.30;99.90;;;;;;4991453;28;20030;-93
2020/12/18 09:46:18;;;;;;;20.25;14.52;;;13.60;99.90;;;;;;5012147;28;20033;-93
2020/12/18 09:48:45;;;;;;;16.75;13.05;;;13.30;99.90;;;;;;5017879;28;20021;-93
2020/12/18 09:51:12;;;;;;;16.60;12.80;;;13.30;99.90;;;;;;5019363;28;20032;-92
2020/12/18 09:53:37;;;;;;;18.60;13.10;;;13.80;99.90;;;;;;5016807;28;20481;-93
2020/12/18 09:56:06;;;;;;;16.20;12.57;;;15.10;99.90;;;;;;5032436;28;20033;-92
2020/12/18 09:58:32;;;;;;;26.58;13.32;;;14.70;99.90;;;;;;5035461;28;20032;-94
2020/12/18 10:00:58;;;;;;;14.73;11.85;;;14.40;99.90;;;;;;5023282;28;20024;-93
2020/12/18 10:03:23;;;;;;;16.35;12.50;;;14.20;99.90;;;;;;5022891;28;20539;-91
2020/12/18 10:05:49;;;;;;;14.27;11.00;;;14.80;99.90;;;;;;5030395;28;20013;-93
2020/12/18 10:08:15;;;;;;;18.33;12.43;;;15.60;99.90;;;;;;5034445;28;20119;-93
2020/12/18 10:10:41;;;;;;;14.35;11.48;;;16.90;99.90;;;;;;5025592;28;20027;-93
2020/12/18 10:13:06;;;;;;;13.27;10.55;;;19.40;99.90;;;;;;5022691;28;20049;-93
2020/12/18 10:15:32;;;;;;;13.38;10.30;;;22.60;99.90;;;;;;5045195;28;20025;-91
2020/12/18 10:17:58;;;;;;;11.02;9.30;;;21.80;99.90;;;;;;5051920;28;20083;-94
2020/12/18 10:20:23;;;;;;;10.57;9.48;;;22.20;99.90;;;;;;5032436;28;20033;-93
2020/12/18 10:22:49;;;;;;;10.18;9.02;;;25.80;99.90;;;;;;5016456;28;20026;-92
2020/12/18 10:25:15;;;;;;;15.10;11.35;;;26.90;99.90;;;;;;5032446;28;20108;-93
2020/12/18 10:27:42;;;;;;;12.25;9.80;;;23.00;99.90;;;;;;5016505;28;20029;-92
2020/12/18 10:30:08;;;;;;;11.60;10.00;;;20.80;99.90;;;;;;5009974;28;20025;-92
2020/12/18 10:32:35;;;;;;;11.57;9.90;;;20.30;99.90;;;;;;5024482;28;20408;-92
2020/12/18 10:35:01;;;;;;;12.55;10.85;;;19.30;99.90;;;;;;5016489;28;20036;-92
2020/12/18 10:37:27;;;;;;;11.05;9.95;;;20.30;99.90;;;;;;5024911;28;20025;-91
2020/12/18 10:39:53;;;;;;;12.05;10.65;;;20.80;99.90;;;;;;5036106;28;20025;-96
2020/12/18 10:42:20;;;;;;;12.35;10.88;;;20.10;99.90;;;;;;5036397;28;20115;-94
2020/12/18 10:45:20;;;;;;;14.48;11.65;;;18.40;99.90;;;;;;5019685;28;20028;-91
2020/12/18 10:47:46;;;;;;;15.20;11.38;;;16.90;99.90;;;;;;4997313;28;20048;-93
2020/12/18 10:50:11;;;;;;;14.65;11.95;;;16.20;99.90;;;;;;5043482;28;20493;-92
2020/12/18 10:52:37;;;;;;;13.73;11.88;;;16.00;99.90;;;;;;5032450;28;20030;-92
2020/12/18 10:55:03;;;;;;;12.40;11.10;;;15.60;99.90;;;;;;5015789;28;20129;-92
2020/12/18 10:57:28;;;;;;;13.43;11.38;;;15.50;99.90;;;;;;5016873;28;20029;-94
2020/12/18 10:59:54;;;;;;;14.45;12.00;;;15.40;99.90;;;;;;5044050;28;20104;-93
2020/12/18 11:02:19;;;;;;;14.90;12.38;;;15.20;99.90;;;;;;5015844;28;20366;-95
2020/12/18 11:04:45;;;;;;;15.73;12.48;;;15.00;99.90;;;;;;5019176;28;20019;-93
2020/12/18 11:07:11;;;;;;;15.80;12.40;;;14.90;99.90;;;;;;5050777;28;20150;-94
2020/12/18 11:09:39;;;;;;;16.10;11.57;;;14.90;99.90;;;;;;5021280;28;20028;-93
2020/12/18 11:12:04;;;;;;;15.52;12.85;;;14.80;99.90;;;;;;5039310;28;20592;-96
2020/12/18 11:14:30;;;;;;;16.13;12.90;;;14.70;99.90;;;;;;5057456;28;20060;-96
2020/12/18 11:16:56;;;;;;;16.10;12.35;;;15.10;99.90;;;;;;5061026;28;20033;-96
2020/12/18 11:19:23;;;;;;;14.38;11.70;;;16.10;99.90;;;;;;5063526;28;20056;-93
2020/12/18 11:21:49;;;;;;;15.70;11.73;;;16.20;99.90;;;;;;5039634;28;20078;-96
2020/12/18 11:24:15;;;;;;;13.90;11.00;;;15.80;99.90;;;;;;5056916;28;20104;-95
2020/12/18 11:26:42;;;;;;;13.90;12.02;;;15.40;99.90;;;;;;5033902;28;20034;-94
2020/12/18 11:29:08;;;;;;;13.73;11.23;;;15.00;99.90;;;;;;5036653;28;20033;-93
2020/12/18 11:31:40;;;;;;;13.60;11.57;;;14.60;99.90;;;;;;5039380;28;20091;-95
2020/12/18 11:34:06;;;;;;;13.27;11.65;;;14.30;99.90;;;;;;5021304;28;20098;-96
2020/12/18 11:36:36;;;;;;;14.98;11.88;;;14.40;99.90;;;;;;5023345;28;20029;-96
2020/12/18 11:39:04;;;;;;;14.85;10.95;;;14.30;99.90;;;;;;5020262;28;20079;-96
2020/12/18 11:41:29;;;;;;;14.25;12.30;;;14.20;99.90;;;;;;5021593;28;20052;-96
2020/12/18 11:43:55;;;;;;;20.13;13.45;;;14.20;99.90;;;;;;5021682;28;20029;-94
2020/12/18 11:46:20;;;;;;;16.60;12.77;;;14.00;99.90;;;;;;5019566;28;20392;-92
2020/12/18 11:48:57;;;;;;;19.85;12.23;;;14.00;99.90;;;;;;5043539;28;20016;-96
2020/12/18 11:54:00;;;;;;;14.07;11.80;;;13.90;99.90;;;;;;5146734;22;20072;-94
2020/12/18 11:56:26;;;;;;;16.20;11.43;;;13.80;99.90;;;;;;5077907;28;20360;-92
2020/12/18 11:59:05;;;;;;;15.20;11.55;;;13.80;99.90;;;;;;5058377;28;20365;-94
2020/12/18 12:01:31;;;;;;;15.38;11.77;;;13.80;99.90;;;;;;5060161;28;20028;-96
2020/12/18 12:03:57;;;;;;;15.57;11.90;;;13.80;99.90;;;;;;5061155;28;20024;-94
2020/12/18 12:06:22;;;;;;;13.95;11.45;;;13.90;99.90;;;;;;5059395;28;20048;-94
2020/12/18 12:08:51;;;;;;;13.82;11.73;;;13.90;99.90;;;;;;5059129;28;20025;-95
2020/12/18 12:11:18;;;;;;;15.02;11.63;;;13.90;99.90;;;;;;5059119;28;20036;-95
2020/12/18 12:13:44;;;;;;;13.02;10.80;;;13.90;99.90;;;;;;5058811;28;20028;-92
2020/12/18 12:16:11;;;;;;;15.40;11.05;;;14.00;99.90;;;;;;5059050;28;20020;-95
2020/12/18 12:18:37;;;;;;;18.92;11.95;;;14.00;99.90;;;;;;5059105;28;20024;-92
2020/12/18 12:21:03;;;;;;;14.60;11.88;;;14.10;99.90;;;;;;5039498;28;20054;-87
2020/12/18 12:23:28;;;;;;;16.02;11.50;;;14.10;99.90;;;;;;5058130;28;20071;-91
2020/12/18 12:25:54;;;;;;;14.25;12.10;;;14.30;99.90;;;;;;5043208;28;20211;-92
2020/12/18 12:28:20;;;;;;;15.38;11.95;;;14.20;99.90;;;;;;5038239;28;20378;-92
2020/12/18 12:30:45;;;;;;;14.57;11.40;;;14.40;99.90;;;;;;5053577;28;20039;-93
2020/12/18 12:33:11;;;;;;;14.30;11.35;;;14.80;99.90;;;;;;5057818;28;20048;-94
2020/12/18 12:35:37;;;;;;;13.90;10.98;;;15.50;99.90;;;;;;5046610;28;20033;-94
2020/12/18 12:38:06;;;;;;;15.93;12.23;;;15.80;99.90;;;;;;5058022;28;20066;-94
2020/12/18 12:40:32;;;;;;;11.00;9.75;;;15.60;99.90;;;;;;5050878;28;20036;-93
2020/12/18 12:42:58;;;;;;;13.00;10.45;;;15.10;99.90;;;;;;5037325;28;20025;-93
2020/12/18 12:45:23;;;;;;;13.10;11.05;;;15.00;99.90;;;;;;5037749;28;20469;-93
2020/12/18 12:47:49;;;;;;;12.88;10.48;;;15.40;99.90;;;;;;5037736;28;20145;-92
2020/12/18 12:50:14;;;;;;;11.75;9.88;;;16.40;99.90;;;;;;5037979;28;20032;-94
2020/12/18 12:52:40;;;;;;;12.35;9.80;;;17.90;99.90;;;;;;5037793;28;20048;-94
2020/12/18 12:55:06;;;;;;;12.23;10.40;;;18.00;99.90;;;;;;5037923;28;20060;-94
2020/12/18 12:57:32;;;;;;;11.45;9.68;;;17.40;99.90;;;;;;5037556;28;20031;-94
2020/12/18 12:59:58;;;;;;;12.35;8.38;;;17.40;99.90;;;;;;5071332;28;20103;-94
2020/12/18 13:02:24;;;;;;;9.75;8.73;;;17.90;99.90;;;;;;5038092;28;20017;-94
2020/12/18 13:04:49;;;;;;;8.70;7.80;;;20.10;99.90;;;;;;5037419;28;20021;-94
2020/12/18 13:07:15;;;;;;;11.23;8.27;;;20.60;99.90;;;;;;5037512;28;20124;-94
2020/12/18 13:09:40;;;;;;;11.20;8.80;;;22.20;99.90;;;;;;5037596;28;20489;-94
2020/12/18 13:12:09;;;;;;;9.65;8.52;;;20.70;99.90;;;;;;5039647;28;20048;-94